Time,TemperatureF,DewpointF,PressureIn,WindDirection,WindDirectionDegrees,WindSpeedMPH,WindSpeedGustMPH,Humidity,HourlyPrecipIn,Conditions,Clouds,dailyrainin,SoftwareType,DateUTC
2013-12-14 00:04:00,23.2,4.0,30.50,NNE,17,0.0,0.0,43,0.00,NA,NA,-99.99,VWS Version 10.38,2013-12-14 05:04:00,
2013-12-14 00:09:00,23.0,4.3,30.50,NNE,18,0.0,0.0,44,0.00,NA,NA,-99.99,VWS Version 10.38,2013-12-14 05:09:00,
2013-12-14 00:14:00,22.8,3.7,30.50,ENE,68,3.1,3.1,43,0.00,NA,NA,-99.99,VWS Version 10.38,2013-12-14 05:14:00,
2013-12-14 00:19:00,22.6,3.5,30.50,SE,125,0.0,0.0,43,0.00,NA,NA,-99.99,VWS Version 10.38,2013-12-14 05:19:00,
2013-12-14 00:24:00,22.8,4.2,30.50,WNW,296,0.0,0.0,44,0.00,NA,NA,-99.99,VWS Version 10.38,2013-12-14 05:24:00,
2013-12-14 00:29:00,23.0,4.3,30.50,ESE,110,0.0,0.0,44,0.00,NA,NA,-99.99,VWS Version 10.38,2013-12-14 05:29:00,
2013-12-14 00:34:00,22.8,3.7,30.50,East,88,2.7,2.7,43,0.00,NA,NA,-99.99,VWS Version 10.38,2013-12-14 05:34:00,
2013-12-14 00:44:00,22.8,3.7,30.50,SSW,211,0.0,0.0,43,0.00,NA,NA,-99.99,VWS Version 10.38,2013-12-14 05:44:00,
2013-12-14 00:49:00,22.8,3.7,30.50,SSW,211,0.0,0.0,43,0.00,NA,NA,-99.99,VWS Version 10.38,2013-12-14 05:49:00,
2013-12-14 00:54:00,22.8,3.7,30.50,SSW,205,0.0,0.0,43,0.00,NA,NA,-99.99,VWS Version 10.38,2013-12-14 05:54:00,
2013-12-14 00:59:00,22.8,3.7,30.50,NNW,328,0.0,0.0,43,0.00,NA,NA,-99.99,VWS Version 10.38,2013-12-14 05:59:00,
2013-12-14 01:09:00,22.5,3.4,30.53,East,95,0.0,0.0,43,0.00,NA,NA,-99.99,VWS Version 10.38,2013-12-14 06:09:00,
2013-12-14 01:14:00,22.3,3.2,30.53,East,95,0.0,0.0,43,0.00,NA,NA,-99.99,VWS Version 10.38,2013-12-14 06:14:00,
2013-12-14 01:19:00,22.3,3.2,30.53,East,95,0.0,0.0,43,0.00,NA,NA,-99.99,VWS Version 10.38,2013-12-14 06:19:00,
2013-12-14 01:24:00,22.6,3.5,30.53,East,95,0.0,0.0,43,0.00,NA,NA,-99.99,VWS Version 10.38,2013-12-14 06:24:00,
2013-12-14 01:29:00,22.8,3.7,30.53,ESE,104,0.0,0.0,43,0.00,NA,NA,-99.99,VWS Version 10.38,2013-12-14 06:29:00,
2013-12-14 01:39:00,22.6,3.5,30.53,ENE,67,0.0,0.0,43,0.00,NA,NA,-99.99,VWS Version 10.38,2013-12-14 06:39:00,
2013-12-14 01:44:00,22.8,4.2,30.53,WNW,295,0.0,0.0,44,0.00,NA,NA,-99.99,VWS Version 10.38,2013-12-14 06:44:00,
2013-12-14 01:49:00,23.0,4.3,30.55,WNW,295,0.0,0.0,44,0.00,NA,NA,-99.99,VWS Version 10.38,2013-12-14 06:49:00,
2013-12-14 01:54:00,23.0,3.8,30.55,NW,316,0.0,0.0,43,0.00,NA,NA,-99.99,VWS Version 10.38,2013-12-14 06:54:00,
2013-12-14 02:04:00,22.6,3.0,30.55,West,259,3.1,3.1,42,0.00,NA,NA,-99.99,VWS Version 10.38,2013-12-14 07:04:00,
2013-12-14 02:09:00,22.5,2.3,30.55,NW,309,0.0,0.0,41,0.00,NA,NA,-99.99,VWS Version 10.38,2013-12-14 07:09:00,
2013-12-14 02:14:00,22.3,2.2,30.55,NW,308,4.0,4.0,41,0.00,NA,NA,-99.99,VWS Version 10.38,2013-12-14 07:14:00,
2013-12-14 02:19:00,22.3,2.2,30.55,West,277,2.7,2.7,41,0.00,NA,NA,-99.99,VWS Version 10.38,2013-12-14 07:19:00,
2013-12-14 02:24:00,22.3,2.2,30.55,SSW,201,0.0,0.0,41,0.00,NA,NA,-99.99,VWS Version 10.38,2013-12-14 07:24:00,
2013-12-14 02:34:00,22.5,2.8,30.55,SW,224,0.0,0.0,42,0.00,NA,NA,-99.99,VWS Version 10.38,2013-12-14 07:34:00,
2013-12-14 02:39:00,22.6,3.0,30.55,East,97,0.0,0.0,42,0.00,NA,NA,-99.99,VWS Version 10.38,2013-12-14 07:39:00,
2013-12-14 02:44:00,22.5,2.8,30.55,East,97,0.0,0.0,42,0.00,NA,NA,-99.99,VWS Version 10.38,2013-12-14 07:44:00,
2013-12-14 02:49:00,22.3,2.7,30.55,East,91,0.0,0.0,42,0.00,NA,NA,-99.99,VWS Version 10.38,2013-12-14 07:49:00,
2013-12-14 02:54:00,22.1,1.5,30.55,NNW,343,2.2,2.2,40,0.00,NA,NA,-99.99,VWS Version 10.38,2013-12-14 07:54:00,
2013-12-14 03:04:00,21.9,0.8,30.55,NNW,341,0.0,0.0,39,0.00,NA,NA,-99.99,VWS Version 10.38,2013-12-14 08:04:00,
2013-12-14 03:09:00,21.9,0.8,30.55,ESE,105,0.0,0.0,39,0.00,NA,NA,-99.99,VWS Version 10.38,2013-12-14 08:09:00,
2013-12-14 03:19:00,21.7,0.1,30.55,ESE,104,5.4,5.4,38,0.00,NA,NA,-99.99,VWS Version 10.38,2013-12-14 08:19:00,
2013-12-14 03:24:00,21.6,-0.7,30.55,NE,39,0.0,0.0,37,0.00,NA,NA,-99.99,VWS Version 10.38,2013-12-14 08:24:00,
2013-12-14 03:29:00,21.4,-0.8,30.55,NW,308,4.0,4.0,37,0.00,NA,NA,-99.99,VWS Version 10.38,2013-12-14 08:29:00,
2013-12-14 03:39:00,21.6,-0.7,30.55,SSW,197,3.1,3.1,37,0.00,NA,NA,-99.99,VWS Version 10.38,2013-12-14 08:39:00,
2013-12-14 03:44:00,21.6,-0.1,30.55,ENE,76,0.0,0.0,38,0.00,NA,NA,-99.99,VWS Version 10.38,2013-12-14 08:44:00,
2013-12-14 03:49:00,21.6,-0.1,30.55,NNW,331,0.0,0.0,38,0.00,NA,NA,-99.99,VWS Version 10.38,2013-12-14 08:49:00,
2013-12-14 03:54:00,21.4,-0.3,30.55,ENE,63,0.0,0.0,38,0.00,NA,NA,-99.99,VWS Version 10.38,2013-12-14 08:54:00,
2013-12-14 04:04:00,21.4,0.3,30.58,WNW,298,0.0,0.0,39,0.00,NA,NA,-99.99,VWS Version 10.38,2013-12-14 09:04:00,
2013-12-14 04:09:00,21.4,0.8,30.58,SSW,193,2.7,2.7,40,0.00,NA,NA,-99.99,VWS Version 10.38,2013-12-14 09:09:00,
2013-12-14 04:14:00,21.6,1.0,30.58,South,176,0.0,0.0,40,0.00,NA,NA,-99.99,VWS Version 10.38,2013-12-14 09:14:00,
2013-12-14 04:19:00,21.6,1.0,30.58,ENE,78,0.0,0.0,40,0.00,NA,NA,-99.99,VWS Version 10.38,2013-12-14 09:19:00,
2013-12-14 04:29:00,21.2,0.7,30.58,NE,47,0.0,0.0,40,0.00,NA,NA,-99.99,VWS Version 10.38,2013-12-14 09:29:00,
2013-12-14 04:34:00,21.4,0.8,30.58,North,353,2.7,2.7,40,0.00,NA,NA,-99.99,VWS Version 10.38,2013-12-14 09:34:00,
2013-12-14 04:39:00,21.2,1.2,30.58,NNW,344,0.0,0.0,41,0.00,NA,NA,-99.99,VWS Version 10.38,2013-12-14 09:39:00,
2013-12-14 04:44:00,21.2,1.2,30.58,ENE,68,0.0,0.0,41,0.00,NA,NA,-99.99,VWS Version 10.38,2013-12-14 09:44:00,
2013-12-14 04:49:00,21.2,1.2,30.58,North,9,0.0,0.0,41,0.00,NA,NA,-99.99,VWS Version 10.38,2013-12-14 09:49:00,
2013-12-14 04:59:00,21.4,1.9,30.58,NW,310,0.0,0.0,42,0.00,NA,NA,-99.99,VWS Version 10.38,2013-12-14 09:59:00,
2013-12-14 05:04:00,21.2,1.7,30.58,ESE,120,0.0,0.0,42,0.00,NA,NA,-99.99,VWS Version 10.38,2013-12-14 10:04:00,
2013-12-14 05:09:00,21.0,1.0,30.58,ENE,73,2.7,2.7,41,0.00,NA,NA,-99.99,VWS Version 10.38,2013-12-14 10:09:00,
2013-12-14 05:14:00,20.8,0.3,30.58,West,264,4.9,4.9,40,0.00,NA,NA,-99.99,VWS Version 10.38,2013-12-14 10:14:00,
2013-12-14 05:19:00,20.7,0.2,30.58,NNE,27,4.9,4.9,40,0.00,NA,NA,-99.99,VWS Version 10.38,2013-12-14 10:19:00,
2013-12-14 05:24:00,20.5,0.0,30.58,SW,218,0.0,0.0,40,0.00,NA,NA,-99.99,VWS Version 10.38,2013-12-14 10:24:00,
2013-12-14 05:30:00,20.7,0.7,30.58,NNE,29,5.4,5.4,41,0.00,NA,NA,-99.99,VWS Version 10.38,2013-12-14 10:30:00,
2013-12-14 05:35:00,20.5,1.0,30.58,NW,315,4.0,4.0,42,0.00,NA,NA,-99.99,VWS Version 10.38,2013-12-14 10:35:00,
2013-12-14 05:40:00,20.3,0.9,30.58,NW,325,0.0,0.0,42,0.00,NA,NA,-99.99,VWS Version 10.38,2013-12-14 10:40:00,
2013-12-14 05:45:00,20.3,1.4,30.58,NE,46,2.7,2.7,43,0.00,NA,NA,-99.99,VWS Version 10.38,2013-12-14 10:45:00,
2013-12-14 05:50:00,20.3,1.4,30.58,NNW,327,2.2,2.2,43,0.00,NA,NA,-99.99,VWS Version 10.38,2013-12-14 10:50:00,
2013-12-14 05:55:00,20.1,1.2,30.58,ENE,76,0.0,0.0,43,0.00,NA,NA,-99.99,VWS Version 10.38,2013-12-14 10:55:00,
2013-12-14 06:00:00,20.1,1.2,30.58,North,6,0.0,0.0,43,0.00,NA,NA,-99.99,VWS Version 10.38,2013-12-14 11:00:00,
2013-12-14 06:05:00,20.1,1.7,30.61,SE,130,0.0,0.0,44,0.00,NA,NA,-99.99,VWS Version 10.38,2013-12-14 11:05:00,
2013-12-14 06:10:00,20.1,1.7,30.61,ENE,68,0.0,0.0,44,0.00,NA,NA,-99.99,VWS Version 10.38,2013-12-14 11:10:00,
2013-12-14 06:20:00,20.1,1.7,30.61,ENE,68,0.0,0.0,44,0.00,NA,NA,-99.99,VWS Version 10.38,2013-12-14 11:20:00,
2013-12-14 06:25:00,20.1,1.7,30.61,ESE,104,0.0,0.0,44,0.00,NA,NA,-99.99,VWS Version 10.38,2013-12-14 11:25:00,
2013-12-14 06:30:00,20.1,2.2,30.61,East,82,4.9,4.9,45,0.00,NA,NA,-99.99,VWS Version 10.38,2013-12-14 11:30:00,
2013-12-14 06:35:00,19.8,1.9,30.61,East,86,3.1,3.1,45,0.00,NA,NA,-99.99,VWS Version 10.38,2013-12-14 11:35:00,
2013-12-14 06:40:00,19.4,2.0,30.61,NE,34,0.0,0.0,46,0.00,NA,NA,-99.99,VWS Version 10.38,2013-12-14 11:40:00,
2013-12-14 06:50:00,19.0,2.1,30.61,ENE,65,2.2,2.2,47,0.00,NA,NA,-99.99,VWS Version 10.38,2013-12-14 11:50:00,
2013-12-14 06:55:00,18.9,2.0,30.61,NNE,18,4.0,4.0,47,0.00,NA,NA,-99.99,VWS Version 10.38,2013-12-14 11:55:00,
2013-12-14 07:00:00,18.7,1.8,30.61,East,93,0.0,0.0,47,0.00,NA,NA,-99.99,VWS Version 10.38,2013-12-14 12:00:00,
2013-12-14 07:05:00,18.5,1.6,30.61,ENE,64,0.0,0.0,47,0.00,NA,NA,-99.99,VWS Version 10.38,2013-12-14 12:05:00,
2013-12-14 07:10:00,18.5,1.6,30.61,North,4,2.7,2.7,47,0.00,NA,NA,-99.99,VWS Version 10.38,2013-12-14 12:10:00,
2013-12-14 07:15:00,18.7,2.3,30.61,NNW,333,3.6,3.6,48,0.00,NA,NA,-99.99,VWS Version 10.38,2013-12-14 12:15:00,
2013-12-14 07:20:00,18.5,2.1,30.61,NNE,33,3.6,3.6,48,0.00,NA,NA,-99.99,VWS Version 10.38,2013-12-14 12:20:00,
2013-12-14 07:25:00,18.3,1.9,30.61,WNW,289,2.7,2.7,48,0.00,NA,NA,-99.99,VWS Version 10.38,2013-12-14 12:25:00,
2013-12-14 07:30:00,18.5,2.1,30.61,NNE,29,0.0,0.0,48,0.00,NA,NA,-99.99,VWS Version 10.38,2013-12-14 12:30:00,
2013-12-14 07:35:00,18.5,2.5,30.64,ENE,74,0.0,0.0,49,0.00,NA,NA,-99.99,VWS Version 10.38,2013-12-14 12:35:00,
2013-12-14 07:40:00,18.7,2.7,30.64,NW,320,0.0,0.0,49,0.00,NA,NA,-99.99,VWS Version 10.38,2013-12-14 12:40:00,
2013-12-14 07:45:00,18.9,2.9,30.64,NE,40,0.0,0.0,49,0.00,NA,NA,-99.99,VWS Version 10.38,2013-12-14 12:45:00,
2013-12-14 07:50:00,18.9,2.9,30.64,NE,50,4.0,4.0,49,0.00,NA,NA,-99.99,VWS Version 10.38,2013-12-14 12:50:00,
2013-12-14 07:55:00,18.7,2.7,30.64,NW,312,0.0,0.0,49,0.00,NA,NA,-99.99,VWS Version 10.38,2013-12-14 12:55:00,
2013-12-14 08:00:00,18.7,3.1,30.64,ENE,78,0.0,0.0,50,0.00,NA,NA,-99.99,VWS Version 10.38,2013-12-14 13:00:00,
2013-12-14 08:05:00,18.7,3.1,30.64,East,97,0.0,0.0,50,0.00,NA,NA,-99.99,VWS Version 10.38,2013-12-14 13:05:00,
2013-12-14 08:10:00,18.7,3.1,30.64,NE,55,0.0,0.0,50,0.00,NA,NA,-99.99,VWS Version 10.38,2013-12-14 13:10:00,
2013-12-14 08:15:00,18.7,3.1,30.64,ENE,57,0.0,0.0,50,0.00,NA,NA,-99.99,VWS Version 10.38,2013-12-14 13:15:00,
2013-12-14 08:20:00,18.7,3.1,30.64,NNE,14,2.7,2.7,50,0.00,NA,NA,-99.99,VWS Version 10.38,2013-12-14 13:20:00,
2013-12-14 08:25:00,18.5,2.5,30.64,NE,41,0.0,0.0,49,0.00,NA,NA,-99.99,VWS Version 10.38,2013-12-14 13:25:00,
2013-12-14 08:30:00,18.9,2.9,30.64,ENE,67,0.0,0.0,49,0.00,NA,NA,-99.99,VWS Version 10.38,2013-12-14 13:30:00,
2013-12-14 08:35:00,18.9,2.9,30.64,East,81,4.0,4.0,49,0.00,NA,NA,-99.99,VWS Version 10.38,2013-12-14 13:35:00,
2013-12-14 08:40:00,18.5,2.1,30.64,West,280,3.6,3.6,48,0.00,NA,NA,-99.99,VWS Version 10.38,2013-12-14 13:40:00,
2013-12-14 08:50:00,18.9,2.0,30.64,ENE,76,0.0,0.0,47,0.00,NA,NA,-99.99,VWS Version 10.38,2013-12-14 13:50:00,
2013-12-14 09:00:00,19.2,2.3,30.64,NE,50,5.4,5.4,47,0.00,NA,NA,-99.99,VWS Version 10.38,2013-12-14 14:00:00,
2013-12-14 09:05:00,19.2,2.3,30.67,West,278,2.2,2.2,47,0.00,NA,NA,-99.99,VWS Version 10.38,2013-12-14 14:05:00,
2013-12-14 09:10:00,19.6,2.2,30.67,NE,35,3.6,3.6,46,0.00,NA,NA,-99.99,VWS Version 10.38,2013-12-14 14:10:00,
2013-12-14 09:15:00,19.8,2.3,30.67,ENE,70,2.7,2.7,46,0.00,NA,NA,-99.99,VWS Version 10.38,2013-12-14 14:15:00,
2013-12-14 09:20:00,19.9,2.5,30.67,NE,38,5.8,5.8,46,0.00,NA,NA,-99.99,VWS Version 10.38,2013-12-14 14:20:00,
2013-12-14 09:25:00,19.6,1.7,30.67,NNW,344,3.6,3.6,45,0.00,NA,NA,-99.99,VWS Version 10.38,2013-12-14 14:25:00,
2013-12-14 09:30:00,19.6,2.2,30.67,ENE,68,0.0,0.0,46,0.00,NA,NA,-99.99,VWS Version 10.38,2013-12-14 14:30:00,
2013-12-14 09:35:00,19.9,2.0,30.67,ESE,107,4.9,4.9,45,0.00,NA,NA,-99.99,VWS Version 10.38,2013-12-14 14:35:00,
2013-12-14 09:40:00,19.8,1.9,30.67,East,79,2.7,2.7,45,0.00,NA,NA,-99.99,VWS Version 10.38,2013-12-14 14:40:00,
2013-12-14 09:45:00,19.9,2.0,30.67,NNW,344,2.7,2.7,45,0.00,NA,NA,-99.99,VWS Version 10.38,2013-12-14 14:45:00,
2013-12-14 09:50:00,20.3,2.4,30.67,North,6,0.0,0.0,45,0.00,NA,NA,-99.99,VWS Version 10.38,2013-12-14 14:50:00,
2013-12-14 09:55:00,20.3,2.4,30.67,SE,145,0.0,0.0,45,0.00,NA,NA,-99.99,VWS Version 10.38,2013-12-14 14:55:00,
2013-12-14 10:00:00,20.3,2.4,30.67,SE,129,2.7,2.7,45,0.00,NA,NA,-99.99,VWS Version 10.38,2013-12-14 15:00:00,
2013-12-14 10:05:00,20.1,2.2,30.67,NNE,18,4.0,4.0,45,0.00,NA,NA,-99.99,VWS Version 10.38,2013-12-14 15:05:00,
2013-12-14 10:15:00,19.2,1.8,30.67,SE,133,0.0,0.0,46,0.00,NA,NA,-99.99,VWS Version 10.38,2013-12-14 15:15:00,
2013-12-14 10:20:00,19.2,1.8,30.67,West,273,5.4,5.4,46,0.00,NA,NA,-99.99,VWS Version 10.38,2013-12-14 15:20:00,
2013-12-14 10:25:00,19.0,1.7,30.67,ESE,108,3.1,3.1,46,0.00,NA,NA,-99.99,VWS Version 10.38,2013-12-14 15:25:00,
2013-12-14 10:35:00,19.2,1.8,30.67,ESE,118,0.0,0.0,46,0.00,NA,NA,-99.99,VWS Version 10.38,2013-12-14 15:35:00,
2013-12-14 10:40:00,19.6,2.2,30.67,ENE,64,4.0,4.0,46,0.00,NA,NA,-99.99,VWS Version 10.38,2013-12-14 15:40:00,
2013-12-14 10:45:00,19.8,2.3,30.67,NW,314,3.1,3.1,46,0.00,NA,NA,-99.99,VWS Version 10.38,2013-12-14 15:45:00,
2013-12-14 10:55:00,20.5,3.0,30.67,East,94,0.0,0.0,46,0.00,NA,NA,-99.99,VWS Version 10.38,2013-12-14 15:55:00,
2013-12-14 11:00:00,20.8,3.3,30.67,SSE,153,0.0,0.0,46,0.00,NA,NA,-99.99,VWS Version 10.38,2013-12-14 16:00:00,
2013-12-14 11:05:00,20.8,3.3,30.67,East,97,0.0,0.0,46,0.00,NA,NA,-99.99,VWS Version 10.38,2013-12-14 16:05:00,
2013-12-14 11:10:00,20.7,3.2,30.67,ENE,76,3.6,3.6,46,0.00,NA,NA,-99.99,VWS Version 10.38,2013-12-14 16:10:00,
2013-12-14 11:15:00,20.3,2.8,30.67,ENE,59,0.0,0.0,46,0.00,NA,NA,-99.99,VWS Version 10.38,2013-12-14 16:15:00,
2013-12-14 11:20:00,20.3,2.8,30.67,ENE,59,3.6,3.6,46,0.00,NA,NA,-99.99,VWS Version 10.38,2013-12-14 16:20:00,
2013-12-14 11:25:00,20.3,2.8,30.67,North,7,6.3,6.3,46,0.00,NA,NA,-99.99,VWS Version 10.38,2013-12-14 16:25:00,
2013-12-14 11:30:00,20.1,1.7,30.67,NW,315,3.1,3.1,44,0.00,NA,NA,-99.99,VWS Version 10.38,2013-12-14 16:30:00,
2013-12-14 11:35:00,20.1,1.7,30.67,SSE,149,0.0,0.0,44,0.00,NA,NA,-99.99,VWS Version 10.38,2013-12-14 16:35:00,
2013-12-14 11:40:00,20.5,2.0,30.67,ENE,65,0.0,0.0,44,0.00,NA,NA,-99.99,VWS Version 10.38,2013-12-14 16:40:00,
2013-12-14 11:45:00,20.7,2.2,30.67,NE,48,0.0,0.0,44,0.00,NA,NA,-99.99,VWS Version 10.38,2013-12-14 16:45:00,
2013-12-14 11:50:00,21.0,2.5,30.64,NNE,32,6.3,6.3,44,0.00,NA,NA,-99.99,VWS Version 10.38,2013-12-14 16:50:00,
2013-12-14 11:55:00,20.8,2.4,30.64,ENE,70,3.6,3.6,44,0.00,NA,NA,-99.99,VWS Version 10.38,2013-12-14 16:55:00,
2013-12-14 12:00:00,20.8,2.4,30.64,ENE,76,2.7,2.7,44,0.00,NA,NA,-99.99,VWS Version 10.38,2013-12-14 17:00:00,
2013-12-14 12:05:00,21.0,2.5,30.64,SE,130,3.1,3.1,44,0.00,NA,NA,-99.99,VWS Version 10.38,2013-12-14 17:05:00,
2013-12-14 12:10:00,21.2,2.7,30.64,NE,46,4.9,4.9,44,0.00,NA,NA,-99.99,VWS Version 10.38,2013-12-14 17:10:00,
2013-12-14 12:15:00,21.2,2.7,30.64,North,353,0.0,0.0,44,0.00,NA,NA,-99.99,VWS Version 10.38,2013-12-14 17:15:00,
2013-12-14 12:20:00,21.4,2.4,30.64,NNE,21,5.4,5.4,43,0.00,NA,NA,-99.99,VWS Version 10.38,2013-12-14 17:20:00,
2013-12-14 12:25:00,21.0,2.5,30.64,East,96,5.8,5.8,44,0.00,NA,NA,-99.99,VWS Version 10.38,2013-12-14 17:25:00,
2013-12-14 12:30:00,21.2,2.7,30.64,NE,51,5.8,5.8,44,0.00,NA,NA,-99.99,VWS Version 10.38,2013-12-14 17:30:00,
2013-12-14 12:35:00,20.8,1.9,30.61,NW,317,3.1,3.1,43,0.00,NA,NA,-99.99,VWS Version 10.38,2013-12-14 17:35:00,
2013-12-14 12:40:00,20.8,1.9,30.61,ENE,68,4.9,4.9,43,0.00,NA,NA,-99.99,VWS Version 10.38,2013-12-14 17:40:00,
2013-12-14 12:45:00,20.8,1.9,30.61,NNE,28,0.0,0.0,43,0.00,NA,NA,-99.99,VWS Version 10.38,2013-12-14 17:45:00,
2013-12-14 12:50:00,21.0,2.0,30.61,NE,36,0.0,0.0,43,0.00,NA,NA,-99.99,VWS Version 10.38,2013-12-14 17:50:00,
2013-12-14 13:00:00,20.3,1.4,30.61,ENE,75,0.0,0.0,43,0.00,NA,NA,-99.99,VWS Version 10.38,2013-12-14 18:00:00,
2013-12-14 13:05:00,20.3,1.4,30.61,ESE,122,3.1,3.1,43,0.00,NA,NA,-99.99,VWS Version 10.38,2013-12-14 18:05:00,
2013-12-14 13:10:00,20.3,1.4,30.61,ESE,103,2.7,2.7,43,0.00,NA,NA,-99.99,VWS Version 10.38,2013-12-14 18:10:00,
2013-12-14 13:15:00,20.1,1.2,30.61,NE,55,0.0,0.0,43,0.00,NA,NA,-99.99,VWS Version 10.38,2013-12-14 18:15:00,
2013-12-14 13:20:00,19.9,1.1,30.61,North,3,0.0,0.0,43,0.00,NA,NA,-99.99,VWS Version 10.38,2013-12-14 18:20:00,
2013-12-14 13:25:00,19.9,1.1,30.61,NW,319,0.0,0.0,43,0.00,NA,NA,-99.99,VWS Version 10.38,2013-12-14 18:25:00,
2013-12-14 13:30:00,19.8,0.9,30.61,NE,53,3.1,3.1,43,0.00,NA,NA,-99.99,VWS Version 10.38,2013-12-14 18:30:00,
2013-12-14 13:40:00,19.4,1.1,30.61,West,264,0.0,0.0,44,0.00,NA,NA,-99.99,VWS Version 10.38,2013-12-14 18:40:00,
2013-12-14 13:45:00,19.2,0.9,30.61,NNW,341,6.7,6.7,44,0.00,NA,NA,-99.99,VWS Version 10.38,2013-12-14 18:45:00,
2013-12-14 13:50:00,19.0,0.7,30.58,NE,47,4.0,4.0,44,0.00,NA,NA,-99.99,VWS Version 10.38,2013-12-14 18:50:00,
2013-12-14 13:55:00,19.0,0.7,30.58,NW,315,4.0,4.0,44,0.00,NA,NA,-99.99,VWS Version 10.38,2013-12-14 18:55:00,
2013-12-14 14:00:00,18.7,0.4,30.58,ENE,76,3.6,3.6,44,0.00,NA,NA,-99.99,VWS Version 10.38,2013-12-14 19:00:00,
2013-12-14 14:05:00,18.5,0.2,30.58,East,98,2.7,2.7,44,0.00,NA,NA,-99.99,VWS Version 10.38,2013-12-14 19:05:00,
2013-12-14 14:10:00,18.5,0.2,30.58,ENE,78,5.4,5.4,44,0.00,NA,NA,-99.99,VWS Version 10.38,2013-12-14 19:10:00,
2013-12-14 14:15:00,18.7,0.4,30.58,NNE,21,2.7,2.7,44,0.00,NA,NA,-99.99,VWS Version 10.38,2013-12-14 19:15:00,
2013-12-14 14:20:00,18.9,0.6,30.58,NE,39,0.0,0.0,44,0.00,NA,NA,-99.99,VWS Version 10.38,2013-12-14 19:20:00,
2013-12-14 14:25:00,18.7,0.4,30.58,SSE,152,3.1,3.1,44,0.00,NA,NA,-99.99,VWS Version 10.38,2013-12-14 19:25:00,
2013-12-14 14:30:00,18.5,0.2,30.58,East,85,3.1,3.1,44,0.00,NA,NA,-99.99,VWS Version 10.38,2013-12-14 19:30:00,
2013-12-14 14:35:00,18.3,0.1,30.58,NNE,12,0.0,0.0,44,0.00,NA,NA,-99.99,VWS Version 10.38,2013-12-14 19:35:00,
2013-12-14 14:40:00,18.0,-0.3,30.58,East,93,0.0,0.0,44,0.00,NA,NA,-99.99,VWS Version 10.38,2013-12-14 19:40:00,
2013-12-14 14:45:00,17.8,0.1,30.58,NW,307,3.1,3.1,45,0.00,NA,NA,-99.99,VWS Version 10.38,2013-12-14 19:45:00,
2013-12-14 14:50:00,17.6,-0.1,30.58,SSW,194,4.0,4.0,45,0.00,NA,NA,-99.99,VWS Version 10.38,2013-12-14 19:50:00,
2013-12-14 14:55:00,17.4,-0.3,30.58,East,90,3.1,3.1,45,0.00,NA,NA,-99.99,VWS Version 10.38,2013-12-14 19:55:00,
2013-12-14 15:00:00,17.2,0.0,30.58,ESE,120,0.0,0.0,46,0.00,NA,NA,-99.99,VWS Version 10.38,2013-12-14 20:00:00,
2013-12-14 15:05:00,16.9,0.2,30.58,ENE,58,0.0,0.0,47,0.00,NA,NA,-99.99,VWS Version 10.38,2013-12-14 20:05:00,
2013-12-14 15:10:00,16.5,0.3,30.58,NE,38,2.2,2.2,48,0.00,NA,NA,-99.99,VWS Version 10.38,2013-12-14 20:10:00,
2013-12-14 15:15:00,16.2,0.4,30.58,East,82,0.0,0.0,49,0.00,NA,NA,-99.99,VWS Version 10.38,2013-12-14 20:15:00,
2013-12-14 15:20:00,16.0,0.6,30.58,NE,51,3.1,3.1,50,0.00,NA,NA,-99.99,VWS Version 10.38,2013-12-14 20:20:00,
2013-12-14 15:25:00,15.8,1.3,30.58,NE,50,0.0,0.0,52,0.00,NA,NA,-99.99,VWS Version 10.38,2013-12-14 20:25:00,
2013-12-14 15:30:00,15.8,1.3,30.58,NNW,332,0.0,0.0,52,0.00,NA,NA,-99.99,VWS Version 10.38,2013-12-14 20:30:00,
2013-12-14 15:35:00,16.0,1.9,30.58,NW,311,0.0,0.0,53,0.00,NA,NA,-99.99,VWS Version 10.38,2013-12-14 20:35:00,
2013-12-14 15:40:00,16.3,2.6,30.58,ESE,108,0.0,0.0,54,0.00,NA,NA,-99.99,VWS Version 10.38,2013-12-14 20:40:00,
2013-12-14 15:45:00,16.3,2.6,30.58,East,95,0.0,0.0,54,0.00,NA,NA,-99.99,VWS Version 10.38,2013-12-14 20:45:00,
2013-12-14 15:50:00,16.2,2.5,30.55,SSE,149,0.0,0.0,54,0.00,NA,NA,-99.99,VWS Version 10.38,2013-12-14 20:50:00,
2013-12-14 15:55:00,15.8,2.1,30.55,North,7,2.2,2.2,54,0.00,NA,NA,-99.99,VWS Version 10.38,2013-12-14 20:55:00,
2013-12-14 16:00:00,15.8,2.5,30.55,North,4,0.0,0.0,55,0.00,NA,NA,-99.99,VWS Version 10.38,2013-12-14 21:00:00,
2013-12-14 16:05:00,15.4,2.2,30.55,WNW,284,0.0,0.0,55,0.00,NA,NA,-99.99,VWS Version 10.38,2013-12-14 21:05:00,
2013-12-14 16:10:00,15.4,2.2,30.55,NW,314,2.7,2.7,55,0.00,NA,NA,-99.99,VWS Version 10.38,2013-12-14 21:10:00,
2013-12-14 16:15:00,15.4,2.6,30.55,SW,224,0.0,0.0,56,0.00,NA,NA,-99.99,VWS Version 10.38,2013-12-14 21:15:00,
2013-12-14 16:20:00,15.8,2.9,30.55,North,3,0.0,0.0,56,0.00,NA,NA,-99.99,VWS Version 10.38,2013-12-14 21:20:00,
2013-12-14 16:25:00,15.8,2.9,30.55,NNW,348,3.6,3.6,56,0.00,NA,NA,-99.99,VWS Version 10.38,2013-12-14 21:25:00,
2013-12-14 16:30:00,15.8,2.9,30.55,NE,44,2.7,2.7,56,0.00,NA,NA,-99.99,VWS Version 10.38,2013-12-14 21:30:00,
2013-12-14 16:35:00,15.8,2.9,30.55,NE,49,4.0,4.0,56,0.00,NA,NA,-99.99,VWS Version 10.38,2013-12-14 21:35:00,
2013-12-14 16:40:00,15.8,2.9,30.55,ENE,71,2.7,2.7,56,0.00,NA,NA,-99.99,VWS Version 10.38,2013-12-14 21:40:00,
2013-12-14 16:50:00,15.8,3.3,30.53,NNE,13,2.7,2.7,57,0.00,NA,NA,-99.99,VWS Version 10.38,2013-12-14 21:50:00,
2013-12-14 16:55:00,15.8,3.3,30.53,East,99,0.0,0.0,57,0.00,NA,NA,-99.99,VWS Version 10.38,2013-12-14 21:55:00,
2013-12-14 17:00:00,15.8,3.3,30.53,SE,126,4.0,4.0,57,0.00,NA,NA,-99.99,VWS Version 10.38,2013-12-14 22:00:00,
2013-12-14 17:05:00,16.0,3.5,30.53,NNW,338,3.6,3.6,57,0.00,NA,NA,-99.99,VWS Version 10.38,2013-12-14 22:05:00,
2013-12-14 17:15:00,16.0,3.8,30.53,WNW,299,0.0,0.0,58,0.00,NA,NA,-99.99,VWS Version 10.38,2013-12-14 22:15:00,
2013-12-14 17:20:00,16.2,4.0,30.50,East,80,2.7,2.7,58,0.00,NA,NA,-99.99,VWS Version 10.38,2013-12-14 22:20:00,
2013-12-14 17:30:00,16.0,4.2,30.50,NNW,345,0.0,0.0,59,0.00,NA,NA,-99.99,VWS Version 10.38,2013-12-14 22:30:00,
2013-12-14 17:35:00,16.0,4.2,30.50,NE,35,2.7,2.7,59,0.00,NA,NA,-99.99,VWS Version 10.38,2013-12-14 22:35:00,
2013-12-14 17:40:00,16.0,4.6,30.50,ENE,64,3.1,3.1,60,0.00,NA,NA,-99.99,VWS Version 10.38,2013-12-14 22:40:00,
2013-12-14 17:45:00,16.2,4.7,30.50,SW,214,3.6,3.6,60,0.00,NA,NA,-99.99,VWS Version 10.38,2013-12-14 22:45:00,
2013-12-14 17:50:00,16.2,5.1,30.47,SW,215,0.0,0.0,61,0.00,NA,NA,-99.99,VWS Version 10.38,2013-12-14 22:50:00,
2013-12-14 17:55:00,16.2,5.1,30.47,SE,144,0.0,0.0,61,0.00,NA,NA,-99.99,VWS Version 10.38,2013-12-14 22:55:00,
2013-12-14 18:00:00,16.5,5.4,30.47,North,2,0.0,0.0,61,0.00,NA,NA,-99.99,VWS Version 10.38,2013-12-14 23:00:00,
2013-12-14 18:05:00,16.5,5.4,30.47,NNE,29,2.2,2.2,61,0.00,NA,NA,-99.99,VWS Version 10.38,2013-12-14 23:05:00,
2013-12-14 18:10:00,16.7,5.6,30.47,West,277,4.5,4.5,61,0.00,NA,NA,-99.99,VWS Version 10.38,2013-12-14 23:10:00,
2013-12-14 18:15:00,16.9,6.1,30.47,West,280,3.1,3.1,62,0.00,NA,NA,-99.99,VWS Version 10.38,2013-12-14 23:15:00,
2013-12-14 18:20:00,17.1,6.3,30.47,NNE,28,2.2,2.2,62,0.00,NA,NA,-99.99,VWS Version 10.38,2013-12-14 23:20:00,
2013-12-14 18:25:00,17.1,5.9,30.47,NNE,32,2.7,2.7,61,0.00,NA,NA,-99.99,VWS Version 10.38,2013-12-14 23:25:00,
2013-12-14 18:30:00,17.2,6.1,30.47,North,11,0.0,0.0,61,0.00,NA,NA,-99.99,VWS Version 10.38,2013-12-14 23:30:00,
2013-12-14 18:35:00,17.4,6.6,30.47,ENE,74,2.7,2.7,62,0.00,NA,NA,-99.99,VWS Version 10.38,2013-12-14 23:35:00,
2013-12-14 18:40:00,17.6,6.8,30.47,SE,126,0.0,0.0,62,0.00,NA,NA,-99.99,VWS Version 10.38,2013-12-14 23:40:00,
2013-12-14 18:45:00,17.8,6.6,30.47,NNW,342,0.0,0.0,61,0.00,NA,NA,-99.99,VWS Version 10.38,2013-12-14 23:45:00,
2013-12-14 18:50:00,17.8,6.6,30.47,West,278,0.0,0.0,61,0.00,NA,NA,-99.99,VWS Version 10.38,2013-12-14 23:50:00,
2013-12-14 18:55:00,17.8,7.0,30.47,WSW,256,3.6,3.6,62,0.00,NA,NA,-99.99,VWS Version 10.38,2013-12-14 23:55:00,
2013-12-14 19:00:00,17.8,7.0,30.47,NNW,341,0.0,0.0,62,0.00,NA,NA,-99.99,VWS Version 10.38,2013-12-15 00:00:00,
2013-12-14 19:05:00,17.8,7.0,30.44,WNW,299,4.9,4.9,62,0.00,NA,NA,-99.99,VWS Version 10.38,2013-12-15 00:05:00,
2013-12-14 19:10:00,18.0,7.2,30.44,ENE,74,4.0,4.0,62,0.00,NA,NA,-99.99,VWS Version 10.38,2013-12-15 00:10:00,
2013-12-14 19:20:00,18.1,7.7,30.44,North,357,3.6,3.6,63,0.00,NA,NA,-99.99,VWS Version 10.38,2013-12-15 00:20:00,
2013-12-14 19:25:00,18.1,8.0,30.44,East,91,0.0,0.0,64,0.00,NA,NA,-99.99,VWS Version 10.38,2013-12-15 00:25:00,
2013-12-14 19:30:00,18.1,8.0,30.44,NW,307,0.0,0.0,64,0.00,NA,NA,-99.99,VWS Version 10.38,2013-12-15 00:30:00,
2013-12-14 19:35:00,18.3,8.2,30.41,ESE,107,0.0,0.0,64,0.00,NA,NA,-99.99,VWS Version 10.38,2013-12-15 00:35:00,
2013-12-14 19:40:00,18.5,8.7,30.41,SE,139,0.0,0.0,65,0.00,NA,NA,-99.99,VWS Version 10.38,2013-12-15 00:40:00,
2013-12-14 19:45:00,18.5,9.1,30.41,NNE,17,2.7,2.7,66,0.00,NA,NA,-99.99,VWS Version 10.38,2013-12-15 00:45:00,
2013-12-14 19:50:00,18.7,9.2,30.41,SE,131,2.7,2.7,66,0.00,NA,NA,-99.99,VWS Version 10.38,2013-12-15 00:50:00,
2013-12-14 19:55:00,18.9,9.7,30.41,NNW,341,0.0,0.0,67,0.00,NA,NA,-99.99,VWS Version 10.38,2013-12-15 00:55:00,
2013-12-14 20:00:00,19.0,9.9,30.41,NE,39,3.1,3.1,67,0.00,NA,NA,-99.99,VWS Version 10.38,2013-12-15 01:00:00,
2013-12-14 20:05:00,19.0,9.9,30.38,ENE,64,0.0,0.0,67,0.00,NA,NA,-99.99,VWS Version 10.38,2013-12-15 01:05:00,
2013-12-14 20:10:00,19.2,10.1,30.38,NNW,336,0.0,0.0,67,0.00,NA,NA,-99.99,VWS Version 10.38,2013-12-15 01:10:00,
2013-12-14 20:15:00,19.4,10.6,30.38,East,84,0.0,0.0,68,0.00,NA,NA,-99.99,VWS Version 10.38,2013-12-15 01:15:00,
2013-12-14 20:20:00,19.6,10.8,30.38,NNE,18,5.4,5.4,68,0.00,NA,NA,-99.99,VWS Version 10.38,2013-12-15 01:20:00,
2013-12-14 20:25:00,19.6,10.8,30.38,SSE,148,0.0,0.0,68,0.00,NA,NA,-99.99,VWS Version 10.38,2013-12-15 01:25:00,
2013-12-14 20:30:00,19.8,11.2,30.38,NNW,332,5.4,5.4,69,0.00,NA,NA,-99.99,VWS Version 10.38,2013-12-15 01:30:00,
2013-12-14 20:35:00,19.9,11.4,30.35,North,11,2.7,2.7,69,0.00,NA,NA,-99.99,VWS Version 10.38,2013-12-15 01:35:00,
2013-12-14 20:40:00,20.1,11.9,30.35,ENE,78,2.7,2.7,70,0.00,NA,NA,-99.99,VWS Version 10.38,2013-12-15 01:40:00,
2013-12-14 20:45:00,20.3,12.1,30.35,ESE,114,2.2,2.2,70,0.00,NA,NA,-99.99,VWS Version 10.38,2013-12-15 01:45:00,
2013-12-14 20:50:00,20.3,12.1,30.35,East,90,0.0,0.0,70,0.00,NA,NA,-99.99,VWS Version 10.38,2013-12-15 01:50:00,
2013-12-14 20:55:00,20.7,12.8,30.35,SW,219,0.0,0.0,71,0.00,NA,NA,-99.99,VWS Version 10.38,2013-12-15 01:55:00,
2013-12-14 21:00:00,20.8,13.2,30.35,North,0,0.0,0.0,72,0.00,NA,NA,-99.99,VWS Version 10.38,2013-12-15 02:00:00,
2013-12-14 21:05:00,21.0,13.4,30.35,East,100,2.7,2.7,72,0.00,NA,NA,-99.99,VWS Version 10.38,2013-12-15 02:05:00,
2013-12-14 21:10:00,21.2,13.6,30.35,NNE,17,4.9,4.9,72,0.00,NA,NA,-99.99,VWS Version 10.38,2013-12-15 02:10:00,
2013-12-14 21:15:00,21.4,13.8,30.35,NNE,21,0.0,0.0,72,0.00,NA,NA,-99.99,VWS Version 10.38,2013-12-15 02:15:00,
2013-12-14 21:20:00,21.6,14.3,30.32,NNE,24,5.8,5.8,73,0.00,NA,NA,-99.99,VWS Version 10.38,2013-12-15 02:20:00,
2013-12-14 21:25:00,21.6,14.3,30.32,ESE,123,3.6,3.6,73,0.00,NA,NA,-99.99,VWS Version 10.38,2013-12-15 02:25:00,
2013-12-14 21:30:00,21.9,14.6,30.32,NNE,32,7.6,7.6,73,0.00,NA,NA,-99.99,VWS Version 10.38,2013-12-15 02:30:00,
2013-12-14 21:35:00,21.9,14.9,30.29,East,99,0.0,0.0,74,0.00,NA,NA,-99.99,VWS Version 10.38,2013-12-15 02:35:00,
2013-12-14 21:40:00,22.3,15.3,30.29,WNW,294,3.1,3.1,74,0.00,NA,NA,-99.99,VWS Version 10.38,2013-12-15 02:40:00,
2013-12-14 21:45:00,22.5,15.8,30.29,WNW,288,8.1,8.1,75,0.00,NA,NA,-99.99,VWS Version 10.38,2013-12-15 02:45:00,
2013-12-14 21:50:00,22.8,16.1,30.29,NNE,26,8.3,8.3,75,0.00,NA,NA,-99.99,VWS Version 10.38,2013-12-15 02:50:00,
2013-12-14 21:55:00,23.0,16.3,30.29,WSW,240,3.1,3.1,75,0.00,NA,NA,-99.99,VWS Version 10.38,2013-12-15 02:55:00,
2013-12-14 22:00:00,23.2,16.5,30.29,NW,310,4.0,4.0,75,0.00,NA,NA,-99.99,VWS Version 10.38,2013-12-15 03:00:00,
2013-12-14 22:05:00,23.4,16.6,30.26,ESE,109,3.1,3.1,75,0.00,NA,NA,-99.99,VWS Version 10.38,2013-12-15 03:05:00,
2013-12-14 22:10:00,23.5,16.8,30.26,East,83,5.8,5.8,75,0.00,NA,NA,-99.99,VWS Version 10.38,2013-12-15 03:10:00,
2013-12-14 22:15:00,23.9,17.5,30.26,ESE,105,7.2,7.2,76,0.00,NA,NA,-99.99,VWS Version 10.38,2013-12-15 03:15:00,
2013-12-14 22:20:00,24.1,17.6,30.26,ESE,123,0.0,0.0,76,0.00,NA,NA,-99.99,VWS Version 10.38,2013-12-15 03:20:00,
2013-12-14 22:25:00,24.3,18.1,30.26,SSE,154,2.7,2.7,77,0.00,NA,NA,-99.99,VWS Version 10.38,2013-12-15 03:25:00,
2013-12-14 22:35:00,24.6,18.5,30.23,NNW,344,5.8,5.8,77,0.00,NA,NA,-99.99,VWS Version 10.38,2013-12-15 03:35:00,
2013-12-14 22:40:00,24.6,18.8,30.23,ENE,76,2.2,2.2,78,0.00,NA,NA,-99.99,VWS Version 10.38,2013-12-15 03:40:00,
2013-12-14 22:45:00,24.8,18.9,30.23,NE,51,5.4,5.4,78,0.00,NA,NA,-99.99,VWS Version 10.38,2013-12-15 03:45:00,
2013-12-14 22:50:00,25.0,19.1,30.23,SSE,150,2.7,2.7,78,0.00,NA,NA,-99.99,VWS Version 10.38,2013-12-15 03:50:00,
2013-12-14 22:55:00,25.2,19.3,30.23,NNE,20,8.3,8.3,78,0.00,NA,NA,-99.99,VWS Version 10.38,2013-12-15 03:55:00,
2013-12-14 23:00:00,25.3,19.5,30.23,ENE,62,3.1,3.1,78,0.00,NA,NA,-99.99,VWS Version 10.38,2013-12-15 04:00:00,
2013-12-14 23:05:00,25.3,19.8,30.20,NNW,339,0.0,0.0,79,0.00,NA,NA,-99.99,VWS Version 10.38,2013-12-15 04:05:00,
2013-12-14 23:10:00,25.3,19.8,30.20,SE,139,4.9,4.9,79,0.00,NA,NA,-99.99,VWS Version 10.38,2013-12-15 04:10:00,
2013-12-14 23:15:00,25.5,19.9,30.20,SSE,163,0.0,0.0,79,0.00,NA,NA,-99.99,VWS Version 10.38,2013-12-15 04:15:00,
2013-12-14 23:20:00,25.7,20.1,30.20,SSW,201,0.0,0.0,79,0.00,NA,NA,-99.99,VWS Version 10.38,2013-12-15 04:20:00,
2013-12-14 23:25:00,25.9,20.3,30.20,NNW,338,2.7,2.7,79,0.00,NA,NA,-99.99,VWS Version 10.38,2013-12-15 04:25:00,
2013-12-14 23:30:00,25.9,20.3,30.20,NW,310,3.1,3.1,79,0.00,NA,NA,-99.99,VWS Version 10.38,2013-12-15 04:30:00,
2013-12-14 23:35:00,26.1,20.5,30.20,NNE,28,4.0,4.0,79,0.00,NA,NA,-99.99,VWS Version 10.38,2013-12-15 04:35:00,
2013-12-14 23:40:00,26.1,20.5,30.20,NE,47,5.4,5.4,79,0.00,NA,NA,-99.99,VWS Version 10.38,2013-12-15 04:40:00,
2013-12-14 23:45:00,26.1,20.5,30.20,SSW,209,0.0,0.0,79,0.00,NA,NA,-99.99,VWS Version 10.38,2013-12-15 04:45:00,
2013-12-14 23:50:00,26.2,20.6,30.14,East,98,0.0,0.0,79,0.00,NA,NA,-99.99,VWS Version 10.38,2013-12-15 04:50:00,
2013-12-14 23:55:00,26.2,20.9,30.14,ESE,115,2.2,2.2,80,0.00,NA,NA,-99.99,VWS Version 10.38,2013-12-15 04:55:00,